Archival Weather

Chicago O'Hare International

Chicago, Illinois (KORD)

Report from: Tuesday, February 27, 2024 6:25 AM CST
Current time: Wednesday, May 29, 2024 7:06 PM CDT

Current weather – Weather history – Daily summaries
Weather forecast

Temperature12.8°C (55.0°F)
Dew point11.7°C (53.1°F)
Winds 11 kts (5.7 m/s, 12.7 mph) South-Southwest (200°)
Visibility8 mi. (12.9 km)
Clouds Few clouds 900 ft. (274 m)
Few clouds 7,000 ft. (2,134 m)
Altimeter29.38 in.Hg (995 mB)
Relative humidity93 %
Density altitude557 ft. (170 m)
Remarks System requires maintenance
Automated weather observing station with precipitation discriminator
Flight conditions Visual Meteorological Conditions
Raw dataKORD 271225Z 20011KT 8SM FEW009 FEW070 13/12 A2938 RMK AO2 T01280117 $
An error has occurred. This application may no longer respond until reloaded. Reload 🗙